Time;durP1;ratioP1;P1;durP2;ratioP2;P2;SDS_P1;SDS_P2;PMS_P1;PMS_P2;Temp;Humidity;BMP_temperature;BMP_pressure;BME280_temperature;BME280_humidity;BME280_pressure;Samples;Min_cycle;Max_cycle;Signal;HPM_P1;HPM_P2
2023/01/31 00:02:22;;;;;;;;;;;;;;;1.79;100.00;66977.09;5024012;28;19975;-82
2023/01/31 00:04:48;;;;;;;;;;;;;;;1.74;100.00;66971.47;5018977;28;19967;-83
2023/01/31 00:07:13;;;;;;;;;;;;;;;1.69;100.00;66966.41;5022537;28;19921;-80
2023/01/31 00:09:38;;;;;;;;;;;;;;;1.68;100.00;66959.47;5022818;28;19947;-83
2023/01/31 00:12:03;;;;;;;;;;;;;;;1.63;100.00;66961.72;5021442;28;19925;-82
2023/01/31 00:14:28;;;;;;;;;;;;;;;1.61;100.00;66956.81;5024302;28;19983;-83
2023/01/31 00:16:54;;;;;;;;;;;;;;;1.60;100.00;66950.47;5020759;28;20400;-83
2023/01/31 00:19:19;;;;;;;;;;;;;;;1.58;100.00;66954.59;5017182;28;20378;-80
2023/01/31 00:21:44;;;;;;;;;;;;;;;;;;5023124;28;19921;-81
2023/01/31 00:24:13;;;;;;;;;;;;;;;1.50;100.00;66945.56;5022806;28;20098;-82
2023/01/31 00:26:38;;;;;;;;;;;;;;;1.53;100.00;66948.41;5017283;28;19921;-80
2023/01/31 00:29:04;;;;;;;;;;;;;;;1.50;100.00;66945.56;5022996;28;19932;-83
2023/01/31 00:31:31;;;;;;;;;;;;;;;1.48;100.00;66945.38;5024025;28;19932;-83
2023/01/31 00:33:56;;;;;;;;;;;;;;;1.48;100.00;66943.31;5018688;28;19972;-82
2023/01/31 00:36:22;;;;;;;;;;;;;;;;;;5022114;28;19925;-81
2023/01/31 00:38:48;;;;;;;;;;;;;;;1.45;100.00;66942.56;5022175;28;20314;-82
2023/01/31 00:41:13;;;;;;;;;;;;;;;1.44;100.00;66938.81;5021010;28;20382;-82
2023/01/31 00:43:38;;;;;;;;;;;;;;;1.42;100.00;66936.56;5023190;28;20008;-80
2023/01/31 00:46:04;;;;;;;;;;;;;;;1.42;100.00;66931.31;5022736;28;20421;-83
2023/01/31 00:48:29;;;;;;;;;;;;;;;1.41;100.00;66940.13;5026039;28;19921;-82
2023/01/31 00:50:55;;;;;;;;;;;;;;;;;;5022108;28;20406;-82
2023/01/31 00:53:24;;;;;;;;;;;;;;;1.35;100.00;66928.69;5021587;28;20349;-83
2023/01/31 00:55:49;;;;;;;;;;;;;;;;;;5022920;28;19925;-81
2023/01/31 00:58:14;;;;;;;;;;;;;;;;;;5029958;28;20322;-83
2023/01/31 01:00:39;;;;;;;;;;;;;;;1.35;100.00;66928.69;5029711;28;19928;-83
2023/01/31 01:03:05;;;;;;;;;;;;;;;1.34;100.00;66927.56;5028254;28;19971;-82
2023/01/31 01:05:30;;;;;;;;;;;;;;;1.31;100.00;66924.75;5030161;28;19983;-82
2023/01/31 01:07:55;;;;;;;;;;;;;;;1.32;100.00;66925.31;5026564;28;19921;-86
2023/01/31 01:10:20;;;;;;;;;;;;;;;1.29;100.00;66921.94;5025313;28;19940;-82
2023/01/31 01:12:46;;;;;;;;;;;;;;;1.29;100.00;66921.94;5028070;28;19929;-83
2023/01/31 01:15:11;;;;;;;;;;;;;;;;;;5024790;28;19952;-83
2023/01/31 01:17:36;;;;;;;;;;;;;;;1.27;100.00;66920.25;5028560;28;20307;-83
2023/01/31 01:20:02;;;;;;;;;;;;;;;1.29;100.00;66917.25;5028538;28;19949;-81
2023/01/31 01:22:30;;;;;;;;;;;;;;;1.27;100.00;66925.50;5030690;28;19921;-82
2023/01/31 01:24:55;;;;;;;;;;;;;;;1.29;100.00;66921.94;5021509;28;19929;-82
2023/01/31 01:27:21;;;;;;;;;;;;;;;1.34;100.00;66922.31;5022732;28;19925;-82
2023/01/31 01:29:46;;;;;;;;;;;;;;;1.32;100.00;66925.31;5030348;28;19998;-83
2023/01/31 01:32:11;;;;;;;;;;;;;;;1.31;100.00;66926.81;5028029;28;19933;-82
2023/01/31 01:34:36;;;;;;;;;;;;;;;1.34;100.00;66933.38;5029474;28;19928;-85
2023/01/31 01:37:08;;;;;;;;;;;;;;;;;;5020569;28;19921;-81
2023/01/31 01:39:34;;;;;;;;;;;;;;;1.36;100.00;66932.44;5034431;28;19926;-82
2023/01/31 01:41:59;;;;;;;;;;;;;;;1.38;100.00;66934.69;5028794;28;19950;-85
2023/01/31 01:44:24;;;;;;;;;;;;;;;;;;5030491;28;19936;-83
2023/01/31 01:46:50;;;;;;;;;;;;;;;1.41;100.00;66937.50;5031346;28;19921;-84
2023/01/31 01:49:15;;;;;;;;;;;;;;;;;;5029047;28;20041;-85
2023/01/31 01:51:42;;;;;;;;;;;;;;;1.44;100.00;66938.81;5026887;28;19952;-85
2023/01/31 01:54:10;;;;;;;;;;;;;;;1.46;100.00;66935.81;5022482;28;19921;-83
2023/01/31 01:56:38;;;;;;;;;;;;;;;1.51;100.00;66948.75;5023272;28;20005;-85
2023/01/31 01:59:03;;;;;;;;;;;;;;;;;;5030489;28;20700;-83
2023/01/31 02:01:32;;;;;;;;;;;;;;;1.55;100.00;66951.22;5030198;28;20063;-83
2023/01/31 02:03:57;;;;;;;;;;;;;;;1.58;100.00;66954.59;5029098;28;20243;-82
2023/01/31 02:06:23;;;;;;;;;;;;;;;1.60;100.00;66960.94;5035807;28;19921;-82
2023/01/31 02:08:48;;;;;;;;;;;;;;;1.63;100.00;66959.66;5037876;28;19921;-83
2023/01/31 02:11:30;;;;;;;;;;;;;;;1.65;100.00;66963.97;5037476;28;19925;-83
2023/01/31 02:13:58;;;;;;;;;;;;;;;1.68;100.00;66965.28;5038773;28;20028;-82
2023/01/31 02:16:23;;;;;;;;;;;;;;;;;;5030674;28;19975;-82
2023/01/31 02:18:50;;;;;;;;;;;;;;;1.71;100.00;66968.09;5031820;28;19917;-83
2023/01/31 02:21:15;;;;;;;;;;;;;;;;;;5020388;28;19925;-82
2023/01/31 02:23:59;;;;;;;;;;;;;;;1.75;100.00;66967.34;5023768;28;19975;-83
2023/01/31 02:26:24;;;;;;;;;;;;;;;;;;5023437;28;19984;-81
2023/01/31 02:29:12;;;;;;;;;;;;;;;1.76;100.00;66973.72;5030161;28;19925;-81
2023/01/31 02:31:47;;;;;;;;;;;;;;;1.76;100.00;66973.72;5035883;28;20398;-82
2023/01/31 02:34:26;;;;;;;;;;;;;;;1.76;100.00;66973.72;5030605;28;19928;-83
2023/01/31 02:37:20;;;;;;;;;;;;;;;1.78;100.00;66975.97;5032804;28;19921;-83
2023/01/31 02:39:45;;;;;;;;;;;;;;;;;;4995684;28;19980;-84
2023/01/31 02:42:11;;;;;;;;;;;;;;;;;;5029821;28;19988;-84
2023/01/31 02:44:59;;;;;;;;;;;;;;;1.79;100.00;66971.88;5028923;28;19925;-82
2023/01/31 02:47:24;;;;;;;;;;;;;;;1.79;100.00;66979.72;5024144;28;20055;-83
2023/01/31 02:49:50;;;;;;;;;;;;;;;1.79;100.00;66979.72;5028435;28;20376;-83
2023/01/31 02:52:19;;;;;;;;;;;;;;;1.81;100.00;66979.34;5028851;28;19932;-81
2023/01/31 02:57:34;;;;;;;;;;;;;;;;;;5034542;28;20020;-83
2023/01/31 03:00:00;;;;;;;;;;;;;;;1.87;100.00;66986.13;5027719;28;19929;-83
2023/01/31 03:02:25;;;;;;;;;;;;;;;1.88;100.00;66987.25;5027586;28;19996;-82
2023/01/31 03:04:50;;;;;;;;;;;;;;;1.93;100.00;66992.88;5028492;28;19925;-82
2023/01/31 03:07:21;;;;;;;;;;;;;;;1.94;100.00;66993.44;5024539;28;19932;-82
2023/01/31 03:10:09;;;;;;;;;;;;;;;1.96;100.00;66991.00;5028142;28;20013;-82
2023/01/31 03:12:54;;;;;;;;;;;;;;;1.98;100.00;66998.50;5015256;28;19992;-82
2023/01/31 03:17:30;;;;;;;;;;;;;;;2.01;100.00;67001.91;5026934;28;20952;-82
2023/01/31 03:18:22;;;;;;;;;;;;;;;2.00;100.00;66995.50;5025220;28;19921;-82
2023/01/31 03:20:54;;;;;;;;;;;;;;;1.98;100.00;66998.50;5026425;28;19944;-82
2023/01/31 03:23:20;;;;;;;;;;;;;;;2.00;100.00;67003.38;5027656;28;19938;-82
2023/01/31 03:25:46;;;;;;;;;;;;;;;2.03;100.00;67006.75;5026886;28;19948;-82
2023/01/31 03:28:14;;;;;;;;;;;;;;;2.03;100.00;67004.13;5030003;28;19975;-82
2023/01/31 03:30:58;;;;;;;;;;;;;;;2.06;100.00;67006.38;5030342;28;19924;-82
2023/01/31 03:33:29;;;;;;;;;;;;;;;2.07;100.00;67007.50;5023369;28;19971;-82
2023/01/31 03:36:13;;;;;;;;;;;;;;;2.08;100.00;67008.66;5027010;28;19921;-82
2023/01/31 03:38:47;;;;;;;;;;;;;;;2.07;100.00;67007.50;5043471;28;20026;-82
2023/01/31 03:41:25;;;;;;;;;;;;;;;2.06;100.00;67009.56;5027426;28;20003;-82
2023/01/31 03:43:57;;;;;;;;;;;;;;;2.05;100.00;67005.28;5026373;28;19921;-82
2023/01/31 03:46:35;;;;;;;;;;;;;;;2.02;100.00;67003.00;5026573;28;19929;-82
2023/01/31 03:49:01;;;;;;;;;;;;;;;;;;5025439;28;19929;-82
2023/01/31 03:51:28;;;;;;;;;;;;;;;2.07;100.00;67008.06;5025781;28;19925;-82
2023/01/31 03:54:03;;;;;;;;;;;;;;;2.07;100.00;67010.13;5027202;28;20125;-82
2023/01/31 03:56:37;;;;;;;;;;;;;;;2.10;100.00;67010.88;5025542;28;19936;-82
2023/01/31 03:59:07;;;;;;;;;;;;;;;2.13;100.00;67016.88;5027300;28;20322;-82
2023/01/31 04:01:33;;;;;;;;;;;;;;;;;;5026610;28;20007;-82
2023/01/31 04:03:58;;;;;;;;;;;;;;;;;;5028556;28;20862;-82
2023/01/31 04:06:25;;;;;;;;;;;;;;;2.19;100.00;67026.84;5027057;28;19928;-82
2023/01/31 04:08:50;;;;;;;;;;;;;;;;;;5026484;28;19983;-81
2023/01/31 04:11:19;;;;;;;;;;;;;;;2.25;100.00;67030.44;5027598;28;20382;-81
2023/01/31 04:13:44;;;;;;;;;;;;;;;2.28;100.00;67033.81;5025824;28;20048;-82
2023/01/31 04:16:09;;;;;;;;;;;;;;;;;;5019356;28;20005;-82
2023/01/31 04:18:34;;;;;;;;;;;;;;;2.35;100.00;67039.06;5022944;28;20350;-81
2023/01/31 04:20:59;;;;;;;;;;;;;;;2.43;100.00;67048.06;5018044;28;19929;-81
2023/01/31 04:23:25;;;;;;;;;;;;;;;2.47;100.00;67052.59;5026604;28;19921;-82
2023/01/31 04:25:52;;;;;;;;;;;;;;;2.54;100.00;67065.16;5026167;28;19925;-81
2023/01/31 04:28:17;;;;;;;;;;;;;;;2.59;100.00;67059.72;5027682;28;19921;-82
2023/01/31 04:30:42;;;;;;;;;;;;;;;2.60;100.00;67069.28;5019919;28;19921;-82
2023/01/31 04:33:07;;;;;;;;;;;;;;;2.61;100.00;67067.22;5022554;28;19921;-81
2023/01/31 04:35:33;;;;;;;;;;;;;;;;;;5026666;28;19956;-82
2023/01/31 04:37:59;;;;;;;;;;;;;;;2.65;100.00;67071.75;5024397;28;19929;-82
2023/01/31 04:40:24;;;;;;;;;;;;;;;;;;5026741;28;20479;-81
2023/01/31 04:42:49;;;;;;;;;;;;;;;;;;5028057;28;19928;-82
2023/01/31 04:45:15;;;;;;;;;;;;;;;2.65;100.00;67071.75;5022770;28;19928;-82
2023/01/31 04:47:40;;;;;;;;;;;;;;;;;;5026897;28;19932;-82
2023/01/31 04:50:05;;;;;;;;;;;;;;;;;;5024719;28;19921;-82
2023/01/31 04:52:30;;;;;;;;;;;;;;;;;;5026486;28;19933;-82
2023/01/31 04:54:55;;;;;;;;;;;;;;;;;;5026971;28;19928;-82
2023/01/31 04:57:20;;;;;;;;;;;;;;;2.68;100.00;67077.75;5025855;28;19931;-83
2023/01/31 04:59:45;;;;;;;;;;;;;;;;;;5027100;28;19956;-82
2023/01/31 05:02:13;;;;;;;;;;;;;;;2.72;100.00;67080.19;5022565;28;19925;-81
2023/01/31 05:04:39;;;;;;;;;;;;;;;;;;5022659;28;19964;-82
2023/01/31 05:07:04;;;;;;;;;;;;;;;2.76;100.00;67083.56;5026738;28;19941;-82
2023/01/31 05:09:30;;;;;;;;;;;;;;;2.77;100.00;67085.28;5026766;28;19917;-81
2023/01/31 05:11:55;;;;;;;;;;;;;;;2.79;100.00;67081.69;5025514;28;20579;-82
2023/01/31 05:14:20;;;;;;;;;;;;;;;2.80;100.00;67083.41;5025935;28;19979;-82
2023/01/31 05:16:46;;;;;;;;;;;;;;;;;;5027903;28;19927;-82
2023/01/31 05:19:11;;;;;;;;;;;;;;;;;;5024267;28;19935;-82
2023/01/31 05:21:53;;;;;;;;;;;;;;;;;;5023128;28;19921;-82
2023/01/31 05:24:19;;;;;;;;;;;;;;;;;;5026445;28;19921;-82
2023/01/31 05:26:44;;;;;;;;;;;;;;;2.87;100.00;67096.53;5020212;28;20337;-82
2023/01/31 05:29:09;;;;;;;;;;;;;;;2.88;100.00;67097.66;5027377;28;19928;-82
2023/01/31 05:31:34;;;;;;;;;;;;;;;2.90;100.00;67099.34;5024206;28;19925;-82
2023/01/31 05:34:00;;;;;;;;;;;;;;;2.93;100.00;67102.72;5026101;28;20717;-84
2023/01/31 05:36:25;;;;;;;;;;;;;;;2.92;100.00;67102.16;5019867;28;20384;-84
2023/01/31 05:38:50;;;;;;;;;;;;;;;2.93;100.00;67103.31;5019155;28;20003;-84
2023/01/31 05:41:15;;;;;;;;;;;;;;;;;;5027800;28;19936;-84
2023/01/31 05:43:40;;;;;;;;;;;;;;;2.94;100.00;67099.19;5032414;28;19925;-84
2023/01/31 05:46:06;;;;;;;;;;;;;;;2.94;100.00;67103.88;5029307;28;19921;-84
2023/01/31 05:48:31;;;;;;;;;;;;;;;2.93;100.00;67102.72;5032043;28;19925;-84
2023/01/31 05:50:56;;;;;;;;;;;;;;;2.93;100.00;67103.31;5022679;28;19955;-84
2023/01/31 05:53:21;;;;;;;;;;;;;;;;;;5021975;28;19957;-84
2023/01/31 05:55:47;;;;;;;;;;;;;;;2.96;100.00;67108.19;5028022;28;19917;-84
2023/01/31 05:58:12;;;;;;;;;;;;;;;2.96;100.00;67106.13;5025957;28;19921;-84
2023/01/31 06:00:37;;;;;;;;;;;;;;;2.94;100.00;67104.44;5024880;28;19928;-84
2023/01/31 06:03:03;;;;;;;;;;;;;;;2.96;100.00;67100.28;5030122;28;19917;-84
2023/01/31 06:05:28;;;;;;;;;;;;;;;2.94;100.00;67106.50;5024886;28;19961;-84
2023/01/31 06:07:54;;;;;;;;;;;;;;;2.92;100.00;67101.63;5023957;28;19929;-84
2023/01/31 06:10:19;;;;;;;;;;;;;;;2.90;100.00;67102.53;5026363;28;19921;-83
2023/01/31 06:12:44;;;;;;;;;;;;;;;;;;5025469;28;20586;-84
2023/01/31 06:15:09;;;;;;;;;;;;;;;2.91;100.00;67101.06;5021088;28;20661;-83
2023/01/31 06:17:35;;;;;;;;;;;;;;;;;;5023378;28;19921;-84
2023/01/31 06:20:00;;;;;;;;;;;;;;;2.91;100.00;67106.31;5024905;28;19959;-84
2023/01/31 06:22:25;;;;;;;;;;;;;;;2.90;100.00;67094.09;5021256;28;19921;-84
2023/01/31 06:24:50;;;;;;;;;;;;;;;2.90;100.00;67102.53;5024950;28;19925;-83
2023/01/31 06:27:16;;;;;;;;;;;;;;;2.91;100.00;67095.22;5026903;28;19921;-84
2023/01/31 06:29:41;;;;;;;;;;;;;;;;;;5026578;28;19928;-84
2023/01/31 06:32:06;;;;;;;;;;;;;;;;;;5031200;28;19925;-84
2023/01/31 06:34:31;;;;;;;;;;;;;;;2.92;100.00;67107.44;5030532;28;19978;-84
2023/01/31 06:36:57;;;;;;;;;;;;;;;;;;5025166;28;19921;-84
2023/01/31 06:39:23;;;;;;;;;;;;;;;;;;5026032;28;19921;-83
2023/01/31 06:41:48;;;;;;;;;;;;;;;2.96;100.00;67105.56;5027129;28;19925;-83
2023/01/31 06:44:13;;;;;;;;;;;;;;;3.00;100.00;67110.06;5025362;28;20307;-84
2023/01/31 06:46:38;;;;;;;;;;;;;;;3.00;100.00;67110.63;5029438;28;19956;-84
2023/01/31 06:49:04;;;;;;;;;;;;;;;3.02;100.00;67112.31;5028695;28;19929;-84
2023/01/31 06:51:29;;;;;;;;;;;;;;;3.01;100.00;67111.75;5028873;28;20009;-84
2023/01/31 06:53:55;;;;;;;;;;;;;;;;;;5033933;28;19928;-84
2023/01/31 06:56:20;;;;;;;;;;;;;;;3.05;100.00;67120.94;5028231;28;19925;-84
2023/01/31 06:58:45;;;;;;;;;;;;;;;3.06;100.00;67116.84;5030202;28;20016;-84
2023/01/31 07:01:11;;;;;;;;;;;;;;;3.06;100.00;67116.84;5026052;28;19921;-84
2023/01/31 07:03:36;;;;;;;;;;;;;;;;;;5028056;28;19960;-83
2023/01/31 07:06:02;;;;;;;;;;;;;;;3.08;100.00;67119.66;5029015;28;19921;-84
2023/01/31 07:08:28;;;;;;;;;;;;;;;3.09;100.00;67125.47;5031409;28;19921;-84
2023/01/31 07:10:53;;;;;;;;;;;;;;;;;;5023608;28;19929;-84
2023/01/31 07:13:19;;;;;;;;;;;;;;;3.09;100.00;67120.78;5021323;28;19925;-84
2023/01/31 07:15:44;;;;;;;;;;;;;;;3.10;100.00;67121.91;5034256;28;19975;-84
2023/01/31 07:18:11;;;;;;;;;;;;;;;3.12;100.00;67118.34;5031298;28;19925;-84
2023/01/31 07:20:36;;;;;;;;;;;;;;;3.13;100.00;67119.47;5028851;28;19917;-84
2023/01/31 07:23:01;;;;;;;;;;;;;;;3.14;100.00;67125.84;5029391;28;19921;-84
2023/01/31 07:25:29;;;;;;;;;;;;;;;3.15;100.00;67126.97;5024491;28;20318;-84
2023/01/31 07:27:55;;;;;;;;;;;;;;;3.17;100.00;67131.88;5031178;28;19930;-83
2023/01/31 07:30:20;;;;;;;;;;;;;;;;;;5029771;28;19929;-84
2023/01/31 07:32:45;;;;;;;;;;;;;;;3.16;100.00;67122.84;5033563;28;19931;-84
2023/01/31 07:35:10;;;;;;;;;;;;;;;;;;5029957;28;20016;-84
2023/01/31 07:37:36;;;;;;;;;;;;;;;3.13;100.00;67125.28;5033752;28;19917;-84
2023/01/31 07:40:02;;;;;;;;;;;;;;;3.12;100.00;67126.78;5028163;28;19925;-84
2023/01/31 07:42:27;;;;;;;;;;;;;;;;;;5032620;28;19935;-84
2023/01/31 07:44:52;;;;;;;;;;;;;;;3.11;100.00;67122.47;5027493;28;19937;-83
2023/01/31 07:47:17;;;;;;;;;;;;;;;3.10;100.00;67121.91;5027277;28;20443;-84
2023/01/31 07:49:42;;;;;;;;;;;;;;;3.09;100.00;67115.53;5025528;28;20291;-83
2023/01/31 07:52:08;;;;;;;;;;;;;;;3.11;100.00;67122.47;5030097;28;19995;-83
2023/01/31 07:54:33;;;;;;;;;;;;;;;3.11;100.00;67122.47;5034489;28;19917;-83
2023/01/31 07:56:58;;;;;;;;;;;;;;;3.10;100.00;67121.34;5023650;28;19932;-84
2023/01/31 07:59:23;;;;;;;;;;;;;;;;;;5032673;28;19928;-83
2023/01/31 08:04:32;;;;;;;;;;;;;;;;;;5030028;28;19944;-83
2023/01/31 08:07:00;;;;;;;;;;;;;;;3.11;100.00;67125.66;5032120;28;20019;-84
2023/01/31 08:09:25;;;;;;;;;;;;;;;3.13;100.00;67124.72;5029082;28;19928;-83
2023/01/31 08:11:51;;;;;;;;;;;;;;;3.14;100.00;67128.50;5032630;28;19992;-83
2023/01/31 08:14:16;;;;;;;;;;;;;;;3.15;100.00;67121.72;5027911;28;19925;-83
2023/01/31 08:16:41;;;;;;;;;;;;;;;;;;5028936;28;20333;-83
2023/01/31 08:19:06;;;;;;;;;;;;;;;3.18;100.00;67130.34;5031697;28;19975;-83
2023/01/31 08:21:31;;;;;;;;;;;;;;;;;;5032327;28;19995;-83
2023/01/31 08:23:57;;;;;;;;;;;;;;;3.22;100.00;67134.88;5031941;28;19921;-83
2023/01/31 08:26:22;;;;;;;;;;;;;;;;;;5026773;28;20000;-83
2023/01/31 08:28:47;;;;;;;;;;;;;;;;;;5034702;28;20387;-83
2023/01/31 08:31:14;;;;;;;;;;;;;;;3.27;100.00;67134.69;5033026;28;20522;-83
2023/01/31 08:33:39;;;;;;;;;;;;;;;3.28;100.00;67144.28;5033448;28;19921;-84
2023/01/31 08:36:08;;;;;;;;;;;;;;;3.29;100.00;67137.50;5031431;28;19985;-83
2023/01/31 08:38:33;;;;;;;;;;;;;;;;;;5032611;28;20011;-83
2023/01/31 08:40:58;;;;;;;;;;;;;;;3.33;100.00;67142.00;5031909;28;19975;-83
2023/01/31 08:43:24;;;;;;;;;;;;;;;;;;5033243;28;19921;-83
2023/01/31 08:45:51;;;;;;;;;;;;;;;3.38;100.00;67152.91;5033217;28;20316;-83
2023/01/31 08:48:16;;;;;;;;;;;;;;;;;;5030168;28;19921;-83
2023/01/31 08:50:41;;;;;;;;;;;;;;;3.45;100.00;67159.69;5031522;28;19944;-83
2023/01/31 08:53:07;;;;;;;;;;;;;;;;;;5035007;28;19921;-83
2023/01/31 08:55:32;;;;;;;;;;;;;;;;;;5035901;28;19963;-83
2023/01/31 08:57:57;;;;;;;;;;;;;;;;;;5040632;28;19988;-83
2023/01/31 09:00:25;;;;;;;;;;;;;;;;;;5041917;28;19921;-83
2023/01/31 09:02:54;;;;;;;;;;;;;;;3.53;100.00;67169.25;5046714;28;19916;-84
2023/01/31 09:05:20;;;;;;;;;;;;;;;3.57;100.00;67167.97;5044788;28;19920;-83
2023/01/31 09:07:45;;;;;;;;;;;;;;;;;;5040632;28;19924;-83
2023/01/31 09:10:10;;;;;;;;;;;;;;;;;;5027200;28;19960;-84
2023/01/31 09:12:35;;;;;;;;;;;;;;;3.66;100.00;67183.38;5026854;28;19925;-83
2023/01/31 09:15:00;;;;;;;;;;;;;;;;;;5023170;28;19929;-84
2023/01/31 09:17:25;;;;;;;;;;;;;;;;;;5031892;28;19921;-84
2023/01/31 09:19:51;;;;;;;;;;;;;;;3.73;100.00;67185.44;5030344;28;20344;-83
2023/01/31 09:22:16;;;;;;;;;;;;;;;;;;5028724;28;19921;-83
2023/01/31 09:24:41;;;;;;;;;;;;;;;3.78;100.00;67196.91;5031113;28;19928;-83
2023/01/31 09:27:06;;;;;;;;;;;;;;;;;;5029626;28;20390;-83
2023/01/31 09:29:31;;;;;;;;;;;;;;;3.83;100.00;67202.56;5031427;28;19944;-83
2023/01/31 09:31:56;;;;;;;;;;;;;;;;;;5028833;28;20315;-83
2023/01/31 09:34:22;;;;;;;;;;;;;;;;;;5030966;28;20267;-83
2023/01/31 09:36:47;;;;;;;;;;;;;;;3.90;100.00;67209.31;5027782;28;20434;-83
2023/01/31 09:39:12;;;;;;;;;;;;;;;;;;5029495;28;19921;-83
2023/01/31 09:41:37;;;;;;;;;;;;;;;;;;5027880;28;19928;-83
2023/01/31 09:44:02;;;;;;;;;;;;;;;3.98;100.00;67218.34;5030852;28;19929;-83
2023/01/31 09:46:31;;;;;;;;;;;;;;;4.00;100.00;67215.31;5029370;28;19928;-84
2023/01/31 09:48:58;;;;;;;;;;;;;;;4.02;100.00;67222.84;5031811;28;19921;-83
2023/01/31 09:51:24;;;;;;;;;;;;;;;4.04;100.00;67225.69;5028267;28;19940;-83
2023/01/31 09:53:49;;;;;;;;;;;;;;;4.03;100.00;67224.00;5028856;28;19924;-83
2023/01/31 09:56:14;;;;;;;;;;;;;;;;;;5029611;28;19964;-84
2023/01/31 09:58:58;;;;;;;;;;;;;;;4.02;100.00;67217.59;5026081;28;19925;-83
2023/01/31 10:01:23;;;;;;;;;;;;;;;4.02;100.00;67217.59;5026309;28;19940;-83
2023/01/31 10:04:01;;;;;;;;;;;;;;;4.00;100.00;67215.91;5031901;28;19921;-83
2023/01/31 10:06:33;;;;;;;;;;;;;;;4.01;100.00;67216.47;5027074;28;19921;-83
2023/01/31 10:09:15;;;;;;;;;;;;;;;4.00;100.00;67220.59;5026676;28;19931;-83
2023/01/31 10:11:48;;;;;;;;;;;;;;;4.01;100.00;67222.28;5027559;28;19925;-83
2023/01/31 10:14:17;;;;;;;;;;;;;;;4.01;100.00;67221.72;5032664;28;19921;-83
2023/01/31 10:16:46;;;;;;;;;;;;;;;4.05;100.00;67226.25;5026587;28;20552;-83
2023/01/31 10:19:11;;;;;;;;;;;;;;;;;;5029938;28;19929;-83
2023/01/31 10:21:43;;;;;;;;;;;;;;;4.04;100.00;67220.41;5028888;28;21373;-83
2023/01/31 10:24:20;;;;;;;;;;;;;;;4.03;100.00;67224.56;5029241;28;19948;-83
2023/01/31 10:26:47;;;;;;;;;;;;;;;4.03;100.00;67224.56;5032879;28;19917;-83
2023/01/31 10:29:20;;;;;;;;;;;;;;;4.04;100.00;67225.69;5026775;28;19921;-83
2023/01/31 10:32:01;;;;;;;;;;;;;;;4.05;100.00;67228.88;5026127;28;20358;-83
2023/01/31 10:34:29;;;;;;;;;;;;;;;4.05;100.00;67220.97;5028984;28;19921;-83
2023/01/31 10:36:54;;;;;;;;;;;;;;;;;;5026746;28;19925;-83
2023/01/31 10:39:23;;;;;;;;;;;;;;;4.08;100.00;67229.63;5025524;28;19979;-83
2023/01/31 10:42:00;;;;;;;;;;;;;;;4.13;100.00;67237.91;5031503;28;19921;-84
2023/01/31 10:44:30;;;;;;;;;;;;;;;4.17;100.00;67231.91;5024587;28;19928;-83
2023/01/31 10:46:55;;;;;;;;;;;;;;;;;;5028257;28;19960;-83
2023/01/31 10:49:22;;;;;;;;;;;;;;;4.24;100.00;67247.13;5029707;28;19921;-83
2023/01/31 10:51:55;;;;;;;;;;;;;;;4.30;100.00;67253.91;5026579;28;19982;-83
2023/01/31 10:54:33;;;;;;;;;;;;;;;4.36;100.00;67260.66;5031398;28;19944;-83
2023/01/31 10:56:59;;;;;;;;;;;;;;;;;;5030085;28;19927;-84
2023/01/31 10:59:28;;;;;;;;;;;;;;;4.42;100.00;67269.50;5032584;28;20000;-83
2023/01/31 11:01:53;;;;;;;;;;;;;;;;;;5028279;28;20301;-83
2023/01/31 11:04:24;;;;;;;;;;;;;;;4.47;100.00;67267.25;5025800;28;19921;-83
2023/01/31 11:06:49;;;;;;;;;;;;;;;;;;5031150;28;19922;-83
2023/01/31 11:09:15;;;;;;;;;;;;;;;4.50;100.00;67271.19;5026341;28;19921;-83
2023/01/31 11:11:40;;;;;;;;;;;;;;;;;;5032692;28;19921;-84
2023/01/31 11:14:15;;;;;;;;;;;;;;;4.59;100.00;67286.06;5029348;28;19933;-83
2023/01/31 11:16:40;;;;;;;;;;;;;;;4.66;100.00;67293.97;5030310;28;19927;-83
2023/01/31 11:19:17;;;;;;;;;;;;;;;4.76;100.00;67299.44;5028309;28;19921;-83
2023/01/31 11:21:48;;;;;;;;;;;;;;;4.86;100.00;67310.16;5024666;28;19921;-83
2023/01/31 11:24:13;;;;;;;;;;;;;;;;;;5031705;28;19921;-83
2023/01/31 11:26:38;;;;;;;;;;;;;;;;;;5026463;28;19935;-83
2023/01/31 11:29:17;;;;;;;;;;;;;;;5.07;100.00;67333.31;5026485;28;19949;-83
2023/01/31 11:31:46;;;;;;;;;;;;;;;5.12;100.00;67338.94;5029407;28;19925;-83
2023/01/31 11:34:21;;;;;;;;;;;;;;;5.17;100.00;67350.44;5031616;28;19936;-84
2023/01/31 11:36:47;;;;;;;;;;;;;;;;;;5027646;28;19960;-84
2023/01/31 11:39:12;;;;;;;;;;;;;;;;;;5030620;28;19921;-84
2023/01/31 11:41:40;;;;;;;;;;;;;;;5.19;100.00;67352.69;5027184;28;19933;-83
2023/01/31 11:44:05;;;;;;;;;;;;;;;5.17;100.00;67349.88;5023944;28;19947;-83
2023/01/31 11:46:31;;;;;;;;;;;;;;;5.14;100.00;67347.03;5028553;28;20024;-83
2023/01/31 11:48:56;;;;;;;;;;;;;;;5.10;100.00;67342.53;5029566;28;20026;-83
2023/01/31 11:51:25;;;;;;;;;;;;;;;5.07;100.00;67339.16;5029630;28;19949;-83
2023/01/31 11:53:52;;;;;;;;;;;;;;;5.07;100.00;67339.16;5031525;28;20338;-83
2023/01/31 11:56:23;;;;;;;;;;;;;;;5.03;100.00;67329.34;5029858;28;19964;-83
2023/01/31 11:58:48;;;;;;;;;;;;;;;;;;5035180;28;19928;-83
2023/01/31 12:01:16;;;;;;;;;;;;;;;5.01;100.00;67327.09;5030616;28;19921;-84
2023/01/31 12:03:41;;;;;;;;;;;;;;;;;;5026751;28;20444;-83
2023/01/31 12:06:06;;;;;;;;;;;;;;;;;;5029234;28;20291;-84
2023/01/31 12:08:35;;;;;;;;;;;;;;;4.95;100.00;67325.59;5030855;28;19925;-83
2023/01/31 12:11:00;;;;;;;;;;;;;;;;;;5030334;28;19924;-83
2023/01/31 12:13:27;;;;;;;;;;;;;;;4.95;100.00;67325.59;5031937;28;19921;-83
2023/01/31 12:15:55;;;;;;;;;;;;;;;4.94;100.00;67327.09;5030645;28;19922;-83
2023/01/31 12:18:28;;;;;;;;;;;;;;;4.95;100.00;67325.59;5025682;28;19925;-83
2023/01/31 12:21:01;;;;;;;;;;;;;;;4.95;100.00;67325.59;5027555;28;19929;-83
2023/01/31 12:23:26;;;;;;;;;;;;;;;;;;5024451;28;20422;-83
2023/01/31 12:25:51;;;;;;;;;;;;;;;;;;5029142;28;20321;-83
2023/01/31 12:28:17;;;;;;;;;;;;;;;;;;5027275;28;20283;-83
2023/01/31 12:30:42;;;;;;;;;;;;;;;;;;5030523;28;20371;-83
2023/01/31 12:33:07;;;;;;;;;;;;;;;;;;5024663;28;19949;-83
2023/01/31 12:35:43;;;;;;;;;;;;;;;4.94;100.00;67327.09;5028456;28;19924;-84
2023/01/31 12:38:08;;;;;;;;;;;;;;;;;;5022581;28;20012;-84
2023/01/31 12:40:33;;;;;;;;;;;;;;;;;;5031460;28;19925;-84
2023/01/31 12:43:01;;;;;;;;;;;;;;;4.98;100.00;67323.72;5024477;28;19954;-84
2023/01/31 12:45:48;;;;;;;;;;;;;;;4.98;100.00;67323.72;5028155;28;19928;-84
2023/01/31 12:48:16;;;;;;;;;;;;;;;5.00;100.00;67330.66;5032866;28;19921;-84
2023/01/31 12:51:00;;;;;;;;;;;;;;;5.00;100.00;67331.22;5023861;28;20410;-84
2023/01/31 12:53:51;;;;;;;;;;;;;;;5.00;100.00;67325.97;5021123;28;19932;-84
2023/01/31 12:56:23;;;;;;;;;;;;;;;4.99;100.00;67324.84;5023767;28;19925;-84
2023/01/31 12:58:48;;;;;;;;;;;;;;;;;;5038197;28;19925;-84
2023/01/31 13:01:13;;;;;;;;;;;;;;;;;;5032237;28;19992;-84
2023/01/31 13:03:47;;;;;;;;;;;;;;;5.04;100.00;67335.19;5031340;28;19928;-84
2023/01/31 13:06:18;;;;;;;;;;;;;;;5.05;100.00;67328.97;5029084;28;19927;-84
2023/01/31 13:08:57;;;;;;;;;;;;;;;5.05;100.00;67331.59;5030730;28;19921;-83
2023/01/31 13:11:23;;;;;;;;;;;;;;;;;;5032768;28;19925;-83
2023/01/31 13:13:55;;;;;;;;;;;;;;;5.08;100.00;67342.34;5030529;28;19927;-83
2023/01/31 13:16:20;;;;;;;;;;;;;;;;;;5034141;28;20007;-83
2023/01/31 13:18:48;;;;;;;;;;;;;;;5.08;100.00;67335.00;5029760;28;19955;-83
2023/01/31 13:21:13;;;;;;;;;;;;;;;;;;5029035;28;19929;-83
2023/01/31 13:23:38;;;;;;;;;;;;;;;;;;5032432;28;20859;-83
2023/01/31 13:26:03;;;;;;;;;;;;;;;;;;5031380;28;20022;-83
2023/01/31 13:28:28;;;;;;;;;;;;;;;;;;5027953;28;19936;-83
2023/01/31 13:30:55;;;;;;;;;;;;;;;5.18;100.00;67345.75;5023042;28;19935;-83
2023/01/31 13:33:23;;;;;;;;;;;;;;;5.20;100.00;67347.97;5031223;28;19948;-83
2023/01/31 13:35:49;;;;;;;;;;;;;;;;;;5026285;28;20363;-83
2023/01/31 13:38:14;;;;;;;;;;;;;;;;;;5030561;28;20306;-83
2023/01/31 13:40:39;;;;;;;;;;;;;;;;;;5031720;28;19921;-83
2023/01/31 13:43:04;;;;;;;;;;;;;;;;;;5031734;28;19925;-83
2023/01/31 13:45:33;;;;;;;;;;;;;;;5.36;100.00;67365.50;5029142;28;20008;-83
2023/01/31 13:48:04;;;;;;;;;;;;;;;5.40;100.00;67367.94;5031436;28;19956;-83
2023/01/31 13:50:35;;;;;;;;;;;;;;;5.43;100.00;67370.75;5029643;28;20349;-83
2023/01/31 13:53:03;;;;;;;;;;;;;;;5.46;100.00;67376.78;5027922;28;19933;-83
2023/01/31 13:55:28;;;;;;;;;;;;;;;;;;5030845;28;19951;-83
2023/01/31 13:57:54;;;;;;;;;;;;;;;;;;5032922;28;19921;-83